Time;durP1;ratioP1;P1;durP2;ratioP2;P2;SDS_P1;SDS_P2;PMS_P1;PMS_P2;Temp;Humidity;BMP_temperature;BMP_pressure;BME280_temperature;BME280_humidity;BME280_pressure;Samples;Min_cycle;Max_cycle;Signal;HPM_P1;HPM_P2
2021/11/19 03:46:44;;;;;;;18.45;11.50;;;11.00;85.20;;;;;;5352468;24;20245;-81
2021/11/19 03:49:11;;;;;;;16.52;12.23;;;11.10;85.20;;;;;;4839196;29;20077;-81
2021/11/19 03:51:56;;;;;;;19.85;12.70;;;11.00;85.20;;;;;;4840968;29;20029;-81
2021/11/19 03:54:25;;;;;;;18.92;12.48;;;11.10;85.50;;;;;;4872679;29;20329;-81
2021/11/19 03:56:55;;;;;;;18.25;12.70;;;11.10;85.30;;;;;;4872610;29;20113;-80
2021/11/19 03:59:21;;;;;;;23.77;12.95;;;11.10;85.40;;;;;;4857232;29;20042;-81
2021/11/19 04:01:49;;;;;;;;;;;11.10;85.40;;;;;;4842315;29;20040;-81
2021/11/19 04:04:21;;;;;;;16.55;11.82;;;11.10;85.20;;;;;;4857552;29;19909;-81
2021/11/19 04:06:48;;;;;;;20.30;13.10;;;11.10;85.30;;;;;;4857199;29;20058;-80
2021/11/19 04:09:14;;;;;;;18.90;11.90;;;11.10;85.50;;;;;;4872541;29;20082;-81
2021/11/19 04:11:40;;;;;;;19.17;12.45;;;11.10;85.70;;;;;;4872446;29;20032;-81
2021/11/19 04:14:08;;;;;;;25.30;13.85;;;11.10;85.40;;;;;;4857288;29;20056;-82
2021/11/19 04:16:39;;;;;;;20.92;14.25;;;11.10;85.60;;;;;;4856790;29;20096;-81
2021/11/19 04:19:07;;;;;;;20.40;12.93;;;11.10;85.70;;;;;;4857002;29;20026;-81
2021/11/19 04:21:34;;;;;;;20.38;13.80;;;11.10;85.80;;;;;;4856832;29;20369;-81
2021/11/19 04:24:02;;;;;;;19.52;12.48;;;11.10;85.90;;;;;;4856801;29;20038;-81
2021/11/19 04:26:31;;;;;;;21.67;13.20;;;11.10;86.00;;;;;;4872184;29;20044;-82
2021/11/19 04:28:58;;;;;;;20.73;13.85;;;11.10;85.90;;;;;;4841354;29;20037;-81
2021/11/19 04:31:42;;;;;;;21.65;14.25;;;11.10;86.10;;;;;;4866879;29;20036;-81
2021/11/19 04:34:10;;;;;;;23.88;14.95;;;11.10;86.50;;;;;;4872093;29;20034;-82
2021/11/19 04:36:36;;;;;;;;;;;11.00;86.90;;;;;;4826786;29;20068;-80
2021/11/19 04:39:06;;;;;;;24.30;14.30;;;11.00;87.20;;;;;;4873000;29;19915;-81
2021/11/19 04:41:32;;;;;;;19.83;13.30;;;11.00;87.50;;;;;;4856676;29;20049;-81
2021/11/19 04:43:58;;;;;;;19.77;13.90;;;11.00;87.70;;;;;;4826300;29;20041;-82
2021/11/19 04:46:32;;;;;;;22.65;14.32;;;10.90;87.90;;;;;;4856463;29;20046;-81
2021/11/19 04:48:58;;;;;;;21.42;14.80;;;11.00;88.20;;;;;;4856436;29;20036;-81
2021/11/19 04:51:27;;;;;;;23.27;15.00;;;11.00;88.00;;;;;;4841323;29;20040;-81
2021/11/19 04:53:53;;;;;;;25.13;15.27;;;10.90;88.20;;;;;;4856307;29;20040;-81
2021/11/19 04:56:20;;;;;;;22.40;13.52;;;10.90;88.20;;;;;;4856356;29;20278;-81
2021/11/19 04:58:48;;;;;;;20.88;13.52;;;10.90;88.10;;;;;;4871881;29;20404;-81
2021/11/19 05:01:31;;;;;;;21.55;14.18;;;10.90;88.10;;;;;;4841233;29;20053;-81
2021/11/19 05:04:04;;;;;;;23.08;14.57;;;10.90;88.00;;;;;;4872755;29;20025;-81
2021/11/19 05:06:31;;;;;;;22.92;13.98;;;10.90;87.70;;;;;;4840670;29;20104;-81
2021/11/19 05:08:59;;;;;;;20.98;12.90;;;10.90;87.60;;;;;;4871441;29;20057;-81
2021/11/19 05:11:36;;;;;;;22.40;14.45;;;11.00;87.30;;;;;;4856181;29;20097;-81
2021/11/19 05:14:05;;;;;;;21.75;13.65;;;11.00;87.10;;;;;;4871309;29;20034;-81
2021/11/19 05:16:33;;;;;;;22.02;13.32;;;10.90;86.80;;;;;;4841294;29;20258;-81
2021/11/19 05:19:00;;;;;;;19.73;13.13;;;11.00;86.90;;;;;;4843910;29;20026;-81
2021/11/19 05:21:26;;;;;;;22.13;13.50;;;11.00;86.70;;;;;;4837576;29;20071;-81
2021/11/19 05:23:52;;;;;;;19.65;13.63;;;11.00;86.90;;;;;;4846560;29;20032;-81
2021/11/19 05:26:18;;;;;;;19.58;13.00;;;11.10;86.50;;;;;;4855756;29;20069;-82
2021/11/19 05:28:45;;;;;;;22.60;12.82;;;11.10;86.60;;;;;;4839946;29;20033;-81
2021/11/19 05:31:13;;;;;;;18.73;11.52;;;11.10;86.70;;;;;;4838926;29;20026;-81
2021/11/19 05:33:40;;;;;;;22.85;13.23;;;11.10;86.20;;;;;;4870972;29;20029;-81
2021/11/19 05:36:10;;;;;;;19.88;11.95;;;11.10;86.70;;;;;;4852297;29;20026;-81
2021/11/19 05:38:39;;;;;;;17.90;12.38;;;11.10;86.60;;;;;;4854282;29;20087;-81
2021/11/19 05:41:09;;;;;;;17.83;11.55;;;11.20;86.70;;;;;;4848065;29;20070;-82
2021/11/19 05:43:38;;;;;;;19.83;12.43;;;11.20;86.40;;;;;;4847930;29;20030;-81
2021/11/19 05:46:13;;;;;;;18.95;12.13;;;11.20;86.30;;;;;;4855886;29;20053;-81
2021/11/19 05:48:54;;;;;;;19.50;11.68;;;11.20;86.40;;;;;;4857205;29;20065;-81
2021/11/19 05:51:21;;;;;;;18.63;12.43;;;11.20;86.20;;;;;;4855629;29;20061;-82
2021/11/19 05:53:48;;;;;;;16.15;11.10;;;11.20;85.90;;;;;;4863503;29;20246;-82
2021/11/19 05:56:17;;;;;;;14.77;10.50;;;11.30;86.00;;;;;;4846776;29;20125;-82
2021/11/19 05:58:43;;;;;;;16.38;10.60;;;11.30;85.90;;;;;;4839939;29;20317;-80
2021/11/19 06:01:20;;;;;;;20.48;12.32;;;11.20;85.70;;;;;;4870647;29;20269;-82
2021/11/19 06:03:57;;;;;;;16.00;11.48;;;11.30;85.60;;;;;;4856679;29;20032;-81
2021/11/19 06:06:46;;;;;;;21.33;12.70;;;11.20;85.40;;;;;;4842163;29;20033;-80
2021/11/19 06:09:26;;;;;;;17.88;12.27;;;11.20;85.60;;;;;;4837329;29;20026;-82
2021/11/19 06:11:55;;;;;;;20.55;11.80;;;11.20;85.60;;;;;;4840947;29;20030;-80
2021/11/19 06:14:25;;;;;;;19.98;13.40;;;11.20;85.40;;;;;;4863541;29;20025;-80
2021/11/19 06:17:00;;;;;;;18.38;12.70;;;11.20;85.80;;;;;;4842897;29;22176;-80
2021/11/19 06:19:33;;;;;;;21.13;12.25;;;11.20;85.80;;;;;;4870048;29;20021;-80
2021/11/19 06:22:24;;;;;;;18.95;12.80;;;11.20;85.90;;;;;;4854730;29;20274;-80
2021/11/19 06:24:53;;;;;;;19.83;12.80;;;11.20;86.20;;;;;;4867359;29;20050;-80
2021/11/19 06:27:24;;;;;;;19.50;13.07;;;11.20;86.20;;;;;;4860031;29;20324;-80
2021/11/19 06:29:52;;;;;;;24.17;12.07;;;11.20;85.90;;;;;;4852522;29;20030;-80
2021/11/19 06:32:19;;;;;;;21.65;12.93;;;11.20;86.00;;;;;;4839577;29;20041;-80
2021/11/19 06:34:45;;;;;;;22.02;12.77;;;11.30;86.00;;;;;;4854529;29;20040;-80
2021/11/19 06:37:11;;;;;;;21.25;12.55;;;11.30;85.90;;;;;;4854385;29;20049;-81
2021/11/19 06:39:55;;;;;;;16.88;11.93;;;11.30;86.10;;;;;;4839975;29;20030;-80
2021/11/19 06:42:46;;;;;;;23.73;13.88;;;11.30;86.10;;;;;;4869510;29;20033;-81
2021/11/19 06:45:36;;;;;;;24.48;12.57;;;11.30;86.10;;;;;;4852004;29;20051;-80
2021/11/19 06:48:08;;;;;;;18.27;13.07;;;11.30;86.30;;;;;;4857545;29;20044;-81
2021/11/19 06:50:54;;;;;;;18.80;12.77;;;11.30;86.30;;;;;;4844559;29;20072;-80
2021/11/19 06:53:39;;;;;;;20.60;13.05;;;11.40;86.30;;;;;;4842635;29;20050;-80
2021/11/19 06:56:22;;;;;;;19.73;14.00;;;11.30;86.10;;;;;;4856314;29;20041;-80
2021/11/19 06:59:05;;;;;;;18.90;12.95;;;11.30;86.40;;;;;;4843011;29;20054;-81
2021/11/19 07:01:31;;;;;;;21.88;13.80;;;11.30;86.10;;;;;;4838003;29;20051;-81
2021/11/19 07:03:57;;;;;;;18.88;13.32;;;11.30;86.00;;;;;;4843990;29;20041;-81
2021/11/19 07:06:24;;;;;;;20.70;13.35;;;11.30;85.90;;;;;;4848234;29;20033;-81
2021/11/19 07:08:50;;;;;;;25.70;13.45;;;11.30;85.70;;;;;;4822006;29;20061;-81
2021/11/19 07:11:21;;;;;;;19.75;13.25;;;11.30;85.50;;;;;;4810206;29;20034;-81
2021/11/19 07:13:49;;;;;;;21.48;12.43;;;11.30;85.30;;;;;;4833678;29;20240;-81
2021/11/19 07:16:23;;;;;;;19.35;12.70;;;11.40;85.50;;;;;;4849145;29;20037;-82
2021/11/19 07:18:51;;;;;;;18.42;12.07;;;11.40;85.10;;;;;;4833531;29;20037;-81
2021/11/19 07:21:17;;;;;;;21.38;11.82;;;11.40;84.40;;;;;;4823897;29;20026;-81
2021/11/19 07:23:44;;;;;;;20.42;12.38;;;11.40;84.50;;;;;;4826330;29;20341;-81
2021/11/19 07:26:11;;;;;;;15.80;10.98;;;11.40;83.70;;;;;;4853190;29;20038;-81
2021/11/19 07:28:36;;;;;;;18.65;11.20;;;11.40;83.50;;;;;;4855585;29;20060;-81
2021/11/19 07:31:32;;;;;;;17.77;11.32;;;11.50;83.80;;;;;;4868887;29;20100;-81
2021/11/19 07:34:21;;;;;;;20.33;10.00;;;11.50;83.20;;;;;;4873146;29;20159;-81
2021/11/19 07:36:59;;;;;;;20.83;11.20;;;11.50;83.20;;;;;;4856447;29;20045;-81
2021/11/19 07:39:43;;;;;;;18.98;11.23;;;11.50;83.10;;;;;;4871883;29;20133;-81
2021/11/19 07:42:29;;;;;;;19.17;11.13;;;11.60;83.00;;;;;;4811215;29;20330;-81
2021/11/19 07:45:14;;;;;;;21.83;11.02;;;11.50;83.00;;;;;;4783929;29;20280;-82
2021/11/19 07:48:15;;;;;;;19.65;11.15;;;11.50;83.30;;;;;;4775636;30;20047;-82
2021/11/19 07:50:45;;;;;;;17.13;11.18;;;11.60;83.30;;;;;;4774897;30;20146;-81
2021/11/19 07:53:12;;;;;;;15.00;9.52;;;11.60;83.00;;;;;;4775897;29;20205;-82
2021/11/19 07:55:38;;;;;;;17.02;10.43;;;11.60;82.80;;;;;;4777023;30;20027;-82
2021/11/19 07:58:05;;;;;;;16.47;10.67;;;11.60;82.90;;;;;;4775611;29;20081;-81
2021/11/19 08:00:34;;;;;;;12.45;9.32;;;11.70;82.90;;;;;;4777387;29;20273;-81
2021/11/19 08:03:07;;;;;;;16.97;10.33;;;11.70;82.80;;;;;;4776787;30;20146;-82
2021/11/19 08:05:33;;;;;;;14.70;10.18;;;11.70;83.30;;;;;;4772561;30;20328;-82
2021/11/19 08:08:26;;;;;;;12.88;9.30;;;11.80;82.80;;;;;;4759108;30;20040;-81
2021/11/19 08:11:05;;;;;;;15.95;10.30;;;11.90;82.10;;;;;;4754045;30;20083;-82
2021/11/19 08:13:31;;;;;;;17.45;10.90;;;11.80;82.10;;;;;;4706275;30;20066;-82
2021/11/19 08:15:58;;;;;;;12.23;9.48;;;11.80;81.90;;;;;;4710201;30;20289;-80
2021/11/19 08:18:30;;;;;;;16.17;9.60;;;11.90;81.70;;;;;;4722372;30;20041;-81
2021/11/19 08:21:01;;;;;;;19.10;10.25;;;11.90;81.60;;;;;;4738238;30;20025;-81
2021/11/19 08:23:35;;;;;;;17.13;10.35;;;11.90;81.50;;;;;;4757318;30;20299;-81
2021/11/19 08:26:11;;;;;;;15.75;10.00;;;11.80;81.80;;;;;;4815305;29;20042;-81
2021/11/19 08:28:37;;;;;;;16.52;10.48;;;11.90;81.90;;;;;;4800712;29;20038;-81
2021/11/19 08:31:05;;;;;;;15.18;9.65;;;11.80;81.40;;;;;;4803685;29;20071;-81
2021/11/19 08:33:31;;;;;;;18.98;11.80;;;11.90;81.70;;;;;;4818754;29;20042;-82
2021/11/19 08:35:58;;;;;;;15.40;10.20;;;11.90;81.50;;;;;;4818390;29;20059;-80
2021/11/19 08:38:25;;;;;;;21.65;12.10;;;12.00;81.70;;;;;;4807272;29;20033;-81
2021/11/19 08:40:52;;;;;;;14.90;10.82;;;12.00;81.40;;;;;;4870881;29;20017;-81
2021/11/19 08:43:25;;;;;;;19.25;11.18;;;12.00;81.30;;;;;;4855948;29;20034;-81
2021/11/19 08:45:54;;;;;;;20.33;10.98;;;12.00;81.80;;;;;;4870116;29;20021;-82
2021/11/19 08:48:26;;;;;;;16.63;10.52;;;12.00;81.30;;;;;;4854801;29;20049;-82
2021/11/19 08:50:54;;;;;;;17.80;11.73;;;12.00;81.50;;;;;;4871982;29;20049;-81
2021/11/19 08:53:19;;;;;;;14.80;11.20;;;12.00;81.50;;;;;;4855564;29;20060;-81
2021/11/19 08:55:49;;;;;;;17.45;10.18;;;12.00;81.90;;;;;;4855646;29;20030;-82
2021/11/19 08:58:18;;;;;;;20.23;11.15;;;12.00;81.70;;;;;;4854961;29;20086;-81
2021/11/19 09:00:46;;;;;;;16.20;11.10;;;12.00;82.10;;;;;;4855270;29;20352;-82
2021/11/19 09:03:12;;;;;;;19.02;10.43;;;12.10;81.60;;;;;;4855441;29;20021;-81
2021/11/19 09:05:40;;;;;;;17.00;10.95;;;12.00;81.30;;;;;;4855297;29;20033;-81
2021/11/19 09:08:08;;;;;;;20.48;11.65;;;12.00;81.80;;;;;;4870705;29;20042;-82
2021/11/19 09:10:35;;;;;;;16.58;11.10;;;12.10;81.60;;;;;;4855257;29;20313;-81
2021/11/19 09:13:03;;;;;;;30.05;11.35;;;12.00;81.50;;;;;;4840197;29;20057;-81
2021/11/19 09:15:30;;;;;;;26.23;11.82;;;12.00;81.60;;;;;;4853976;29;20293;-80
2021/11/19 09:18:03;;;;;;;13.75;10.23;;;12.00;81.90;;;;;;4854661;29;20274;-79
2021/11/19 09:20:50;;;;;;;14.32;10.38;;;12.00;81.60;;;;;;4870414;29;20053;-80
2021/11/19 09:23:28;;;;;;;17.77;11.88;;;12.00;81.70;;;;;;4850791;29;20021;-79
2021/11/19 09:25:59;;;;;;;16.35;10.68;;;12.10;81.80;;;;;;4866221;29;20309;-80
2021/11/19 09:28:27;;;;;;;16.90;10.00;;;12.10;82.10;;;;;;4867492;29;20085;-80
2021/11/19 09:30:57;;;;;;;14.93;10.27;;;12.20;81.40;;;;;;4867676;29;20117;-80
2021/11/19 09:33:24;;;;;;;13.77;10.00;;;12.20;81.00;;;;;;4853949;29;20033;-80
2021/11/19 09:35:51;;;;;;;16.00;11.35;;;12.20;80.70;;;;;;4824298;29;20232;-80
2021/11/19 09:38:20;;;;;;;23.80;10.60;;;12.30;80.90;;;;;;4866523;29;20034;-80
2021/11/19 09:40:56;;;;;;;19.52;11.05;;;12.30;80.10;;;;;;4869230;29;20029;-80
2021/11/19 09:43:37;;;;;;;13.23;9.18;;;12.30;80.60;;;;;;4869864;29;20057;-80
2021/11/19 09:46:20;;;;;;;17.13;10.45;;;12.30;80.40;;;;;;4853515;29;20052;-80
2021/11/19 09:49:01;;;;;;;17.67;10.50;;;12.30;80.50;;;;;;4865713;29;20032;-80
2021/11/19 09:52:06;;;;;;;17.13;11.30;;;12.40;80.90;;;;;;4867640;29;20040;-80
2021/11/19 09:55:14;;;;;;;17.60;10.38;;;12.40;80.30;;;;;;4867890;29;20025;-80
2021/11/19 09:57:57;;;;;;;15.60;10.57;;;12.50;79.90;;;;;;4849498;29;20041;-80
2021/11/19 10:01:12;;;;;;;15.48;10.25;;;12.60;80.10;;;;;;4862933;29;20212;-80
2021/11/19 10:04:05;;;;;;;14.90;10.23;;;12.50;80.00;;;;;;4837962;29;20348;-80
2021/11/19 10:06:37;;;;;;;15.80;9.38;;;12.60;80.00;;;;;;4837294;29;20021;-79
2021/11/19 10:09:18;;;;;;;14.00;9.73;;;12.70;79.90;;;;;;4838646;29;20221;-80
2021/11/19 10:12:19;;;;;;;13.60;9.48;;;12.80;79.30;;;;;;4853233;29;20212;-80
2021/11/19 10:15:20;;;;;;;14.85;10.38;;;12.70;78.80;;;;;;4853577;29;20049;-81
2021/11/19 10:18:07;;;;;;;15.15;8.95;;;12.70;79.30;;;;;;4813272;29;20322;-80
2021/11/19 10:21:00;;;;;;;14.02;9.10;;;12.80;79.30;;;;;;4812959;29;20047;-80
2021/11/19 10:23:31;;;;;;;16.08;8.65;;;12.90;78.70;;;;;;4813717;29;20038;-80
2021/11/19 10:26:06;;;;;;;18.95;9.07;;;12.80;79.00;;;;;;4813370;29;20042;-80
2021/11/19 10:28:41;;;;;;;16.08;9.23;;;12.90;78.60;;;;;;4798642;29;20038;-80
2021/11/19 10:31:13;;;;;;;17.17;8.60;;;12.80;78.70;;;;;;4798370;29;20058;-80
2021/11/19 10:33:45;;;;;;;12.63;9.00;;;12.70;78.60;;;;;;4813614;29;20039;-80
2021/11/19 10:36:42;;;;;;;14.75;10.32;;;12.70;79.70;;;;;;4813786;29;20288;-81
2021/11/19 10:39:35;;;;;;;16.77;9.25;;;12.70;79.50;;;;;;4815749;29;20046;-80
2021/11/19 10:42:39;;;;;;;18.10;9.55;;;12.60;79.70;;;;;;4801147;29;20038;-80
2021/11/19 10:45:23;;;;;;;14.00;10.13;;;12.60;79.70;;;;;;4800759;29;20034;-80
2021/11/19 10:48:04;;;;;;;15.10;9.57;;;12.70;79.70;;;;;;4831080;29;20360;-80
2021/11/19 10:51:14;;;;;;;14.55;9.85;;;12.70;79.50;;;;;;4799469;29;20071;-80
2021/11/19 10:54:05;;;;;;;17.77;8.98;;;12.80;79.00;;;;;;4821594;29;20381;-80
2021/11/19 10:57:14;;;;;;;16.10;9.77;;;12.80;78.70;;;;;;4870146;29;20355;-80
2021/11/19 11:00:04;;;;;;;19.52;10.13;;;12.70;78.50;;;;;;4880646;29;20043;-81
2021/11/19 11:02:40;;;;;;;18.88;10.52;;;12.70;78.70;;;;;;4868701;29;20324;-80
2021/11/19 11:05:25;;;;;;;14.63;9.75;;;12.70;79.20;;;;;;4865727;29;20057;-80
2021/11/19 11:08:09;;;;;;;18.08;10.77;;;12.70;79.40;;;;;;4864322;29;20032;-80
2021/11/19 11:10:42;;;;;;;17.35;10.57;;;12.70;79.40;;;;;;4853223;29;20104;-80
2021/11/19 11:13:37;;;;;;;15.88;9.68;;;12.70;79.30;;;;;;4850382;29;20037;-80
2021/11/19 11:16:18;;;;;;;15.65;10.25;;;12.80;79.00;;;;;;4849187;29;20347;-80
2021/11/19 11:18:44;;;;;;;18.40;10.82;;;12.90;79.30;;;;;;4853414;29;20036;-80
2021/11/19 11:21:22;;;;;;;14.88;10.23;;;13.00;79.00;;;;;;4868463;29;20037;-80
2021/11/19 11:23:51;;;;;;;13.65;9.55;;;13.00;79.20;;;;;;4869656;29;20306;-80
2021/11/19 11:26:22;;;;;;;15.27;8.40;;;13.00;79.10;;;;;;4853185;29;20037;-80
2021/11/19 11:28:55;;;;;;;17.20;10.23;;;13.10;79.20;;;;;;4868642;29;20029;-80
2021/11/19 11:31:41;;;;;;;16.75;10.40;;;13.10;78.60;;;;;;4868488;29;20064;-80
2021/11/19 11:34:28;;;;;;;13.48;9.73;;;13.10;79.20;;;;;;4852862;29;20060;-80
2021/11/19 11:37:13;;;;;;;14.35;9.65;;;13.10;79.10;;;;;;4853084;29;20033;-80
2021/11/19 11:40:06;;;;;;;16.15;9.63;;;13.10;79.30;;;;;;4868608;29;20040;-80
2021/11/19 11:42:39;;;;;;;12.63;8.73;;;13.10;79.60;;;;;;4853136;29;20032;-80
2021/11/19 11:45:23;;;;;;;13.73;9.05;;;13.10;79.80;;;;;;4853089;29;20029;-81
2021/11/19 11:47:51;;;;;;;13.05;9.07;;;13.20;79.40;;;;;;4852992;29;20246;-80
2021/11/19 11:50:39;;;;;;;19.58;9.00;;;13.30;79.80;;;;;;4868586;29;20038;-81
2021/11/19 11:53:11;;;;;;;13.18;8.43;;;13.40;78.50;;;;;;4869528;29;20045;-80
2021/11/19 11:55:39;;;;;;;13.82;8.65;;;13.40;78.90;;;;;;4854385;29;20081;-81
2021/11/19 11:58:34;;;;;;;14.82;8.20;;;13.50;78.50;;;;;;4856380;29;20088;-80
2021/11/19 12:01:20;;;;;;;19.80;10.15;;;13.60;78.90;;;;;;4855673;29;20041;-80
2021/11/19 12:04:13;;;;;;;13.93;8.20;;;13.80;78.40;;;;;;4871126;29;20029;-80
2021/11/19 12:07:11;;;;;;;16.45;10.07;;;14.00;77.20;;;;;;4855550;29;20333;-79
2021/11/19 12:09:49;;;;;;;14.00;9.20;;;13.90;76.80;;;;;;4800795;29;20278;-80
2021/11/19 12:12:25;;;;;;;14.38;9.32;;;13.90;76.60;;;;;;4815833;29;20079;-80
2021/11/19 12:15:06;;;;;;;14.45;9.38;;;13.80;77.10;;;;;;4801011;29;20046;-80
2021/11/19 12:17:55;;;;;;;18.67;10.13;;;13.70;77.60;;;;;;4803243;29;20042;-80
2021/11/19 12:21:03;;;;;;;14.55;9.48;;;13.60;77.00;;;;;;4800467;29;20042;-79
2021/11/19 12:23:53;;;;;;;19.13;9.82;;;13.60;76.90;;;;;;4764808;30;20059;-79
2021/11/19 12:26:39;;;;;;;14.80;9.57;;;13.60;77.00;;;;;;4764727;30;20363;-80
2021/11/19 12:29:23;;;;;;;14.55;10.38;;;13.50;76.90;;;;;;4764631;30;20073;-80
2021/11/19 12:32:30;;;;;;;20.83;10.20;;;13.40;77.20;;;;;;4764546;30;20047;-80
2021/11/19 12:35:02;;;;;;;13.70;9.60;;;13.30;78.40;;;;;;4764532;30;20035;-80
2021/11/19 12:37:57;;;;;;;14.52;9.85;;;13.20;78.70;;;;;;4759455;30;20047;-80
2021/11/19 12:40:43;;;;;;;13.60;9.95;;;13.20;78.80;;;;;;4764395;30;20051;-79
2021/11/19 12:43:30;;;;;;;17.63;9.93;;;13.10;79.10;;;;;;4749699;30;20038;-80
2021/11/19 12:46:30;;;;;;;15.82;10.05;;;13.20;79.20;;;;;;4796690;29;20516;-80
2021/11/19 12:49:20;;;;;;;17.08;10.02;;;13.30;78.90;;;;;;4799902;29;20038;-80
2021/11/19 12:52:09;;;;;;;15.77;9.88;;;13.20;79.20;;;;;;4800232;29;20035;-80
2021/11/19 12:54:45;;;;;;;14.18;9.73;;;13.30;79.20;;;;;;4812048;29;20034;-80
2021/11/19 12:57:39;;;;;;;15.13;9.70;;;13.20;79.40;;;;;;4792345;29;20039;-80
2021/11/19 13:00:42;;;;;;;15.00;9.23;;;13.30;79.50;;;;;;4864504;29;20450;-80
2021/11/19 13:03:22;;;;;;;15.75;9.40;;;13.30;79.00;;;;;;4843894;29;20029;-80
2021/11/19 13:06:26;;;;;;;15.43;9.73;;;13.30;79.30;;;;;;4847308;29;20202;-80
2021/11/19 13:09:12;;;;;;;16.45;10.02;;;13.20;79.40;;;;;;4867855;29;20154;-79
2021/11/19 13:12:09;;;;;;;15.02;9.00;;;13.20;79.90;;;;;;4868842;29;20373;-80
2021/11/19 13:14:35;;;;;;;19.58;9.38;;;13.20;80.00;;;;;;4866890;29;20036;-80
2021/11/19 13:17:10;;;;;;;13.40;8.98;;;13.40;80.00;;;;;;4869452;29;20033;-81
2021/11/19 13:19:39;;;;;;;13.95;8.95;;;13.40;79.90;;;;;;4868967;29;20033;-80
2021/11/19 13:22:11;;;;;;;12.32;8.63;;;13.40;79.60;;;;;;4867274;29;20025;-80
2021/11/19 13:24:43;;;;;;;16.63;9.95;;;13.40;79.70;;;;;;4861364;29;20028;-81
2021/11/19 13:27:08;;;;;;;12.73;8.35;;;13.30;79.70;;;;;;4866705;29;20245;-80
2021/11/19 13:29:38;;;;;;;17.25;9.30;;;13.30;80.50;;;;;;4853089;29;20110;-80
2021/11/19 13:32:19;;;;;;;17.10;10.55;;;13.30;79.60;;;;;;4852883;29;20034;-80
2021/11/19 13:34:51;;;;;;;14.63;9.70;;;13.20;80.00;;;;;;4862614;29;20336;-80
2021/11/19 13:37:50;;;;;;;17.40;9.68;;;13.10;80.20;;;;;;4852804;29;20377;-81
2021/11/19 13:40:29;;;;;;;14.02;9.63;;;13.00;80.80;;;;;;4865541;29;20036;-80
2021/11/19 13:43:09;;;;;;;17.25;9.93;;;12.90;81.30;;;;;;4866702;29;20025;-80
2021/11/19 13:45:47;;;;;;;14.63;9.15;;;13.00;81.50;;;;;;4851679;29;20025;-80
2021/11/19 13:48:34;;;;;;;14.10;8.50;;;12.90;81.40;;;;;;4849505;29;20365;-80
2021/11/19 13:51:29;;;;;;;12.98;9.13;;;12.90;81.60;;;;;;4849681;29;20329;-80
2021/11/19 13:54:07;;;;;;;16.10;9.95;;;12.90;81.90;;;;;;4866458;29;20036;-80
2021/11/19 13:56:50;;;;;;;15.45;9.43;;;12.80;82.20;;;;;;4850318;29;20049;-80
2021/11/19 13:59:29;;;;;;;16.45;9.65;;;12.70;82.50;;;;;;4863162;29;20041;-80
2021/11/19 14:02:10;;;;;;;14.18;9.05;;;12.70;82.70;;;;;;4867377;29;20057;-81
2021/11/19 14:04:45;;;;;;;17.25;10.63;;;12.60;83.00;;;;;;4850855;29;20045;-81
2021/11/19 14:07:47;;;;;;;13.75;9.98;;;12.60;83.20;;;;;;4851126;29;20042;-80
2021/11/19 14:10:37;;;;;;;14.50;9.52;;;12.50;83.30;;;;;;4864462;29;20037;-80
2021/11/19 14:13:32;;;;;;;14.10;8.95;;;12.50;83.50;;;;;;4849198;29;20128;-80
2021/11/19 14:16:25;;;;;;;15.75;8.73;;;12.50;83.70;;;;;;4838093;29;20401;-80
2021/11/19 14:19:24;;;;;;;15.63;9.10;;;12.40;84.00;;;;;;4852258;29;20040;-81
2021/11/19 14:22:11;;;;;;;15.38;9.13;;;12.40;84.00;;;;;;4783236;29;20058;-80
2021/11/19 14:25:22;;;;;;;14.30;8.90;;;12.40;84.30;;;;;;4813730;29;20038;-80
2021/11/19 14:27:57;;;;;;;15.88;9.00;;;12.30;84.10;;;;;;4735107;30;20047;-81
2021/11/19 14:30:43;;;;;;;13.93;9.65;;;12.30;84.10;;;;;;4741706;30;20048;-80
2021/11/19 14:33:21;;;;;;;16.40;8.93;;;12.30;84.10;;;;;;4741072;30;20437;-80
2021/11/19 14:35:54;;;;;;;16.63;8.82;;;12.20;84.20;;;;;;4741560;30;20102;-80
2021/11/19 14:38:33;;;;;;;17.08;9.27;;;12.20;84.40;;;;;;4721618;30;20120;-80
2021/11/19 14:41:23;;;;;;;17.27;10.45;;;12.20;84.50;;;;;;4720462;30;20045;-80
2021/11/19 14:43:57;;;;;;;20.17;10.38;;;12.20;84.60;;;;;;4733860;30;20029;-80
2021/11/19 14:46:26;;;;;;;14.35;8.15;;;12.10;84.70;;;;;;4716472;30;20144;-81
2021/11/19 14:49:06;;;;;;;19.33;8.65;;;12.10;84.80;;;;;;4709586;30;20045;-81
2021/11/19 14:51:37;;;;;;;15.43;8.43;;;12.10;84.80;;;;;;4709305;30;20064;-81
2021/11/19 14:54:16;;;;;;;18.58;9.75;;;12.10;84.70;;;;;;4718178;30;20040;-81
2021/11/19 14:56:50;;;;;;;17.23;9.60;;;12.00;84.80;;;;;;4729662;30;20248;-81
2021/11/19 14:59:24;;;;;;;14.57;8.15;;;12.00;85.00;;;;;;4787025;29;20122;-80
2021/11/19 15:02:09;;;;;;;13.13;7.63;;;12.00;85.00;;;;;;4829831;29;20034;-81
2021/11/19 15:04:35;;;;;;;20.05;8.48;;;12.00;85.20;;;;;;4866759;29;20146;-81
2021/11/19 15:07:18;;;;;;;14.27;7.40;;;11.90;85.40;;;;;;4867750;29;20346;-81
2021/11/19 15:10:04;;;;;;;12.65;7.22;;;12.00;85.70;;;;;;4847569;29;20033;-81
2021/11/19 15:12:37;;;;;;;16.60;7.57;;;11.90;85.90;;;;;;4852761;29;20070;-81
2021/11/19 15:15:24;;;;;;;10.50;7.32;;;12.00;86.00;;;;;;4868275;29;20029;-81
2021/11/19 15:17:55;;;;;;;16.35;8.35;;;11.90;86.10;;;;;;4867229;29;20065;-81
2021/11/19 15:20:26;;;;;;;15.07;7.90;;;11.90;86.30;;;;;;4862039;29;20415;-81
2021/11/19 15:22:53;;;;;;;11.50;7.50;;;11.90;86.30;;;;;;4863568;29;20025;-81
2021/11/19 15:25:19;;;;;;;13.70;8.02;;;11.90;86.30;;;;;;4852510;29;20021;-80
2021/11/19 15:28:10;;;;;;;16.95;8.88;;;11.80;86.50;;;;;;4867954;29;20033;-81
2021/11/19 15:30:44;;;;;;;16.13;7.95;;;11.80;86.80;;;;;;4869314;29;20467;-81
2021/11/19 15:33:12;;;;;;;13.68;7.70;;;11.80;86.90;;;;;;4871080;29;20040;-81
2021/11/19 15:35:38;;;;;;;13.23;7.63;;;11.80;86.90;;;;;;4855862;29;20037;-81
2021/11/19 15:38:31;;;;;;;13.13;8.15;;;11.80;87.00;;;;;;4855936;29;20052;-81
2021/11/19 15:40:58;;;;;;;12.93;7.57;;;11.90;87.10;;;;;;4870993;29;20313;-81
2021/11/19 15:43:25;;;;;;;11.02;7.30;;;11.80;87.10;;;;;;4848958;29;20025;-81
2021/11/19 15:45:57;;;;;;;16.52;7.15;;;11.80;87.30;;;;;;4789433;29;1709002;-80
2021/11/19 15:48:28;;;;;;;16.85;7.10;;;11.80;87.30;;;;;;4853787;29;20104;-80
2021/11/19 15:50:54;;;;;;;13.85;7.55;;;11.80;87.50;;;;;;4854522;29;20029;-81
2021/11/19 15:53:43;;;;;;;12.70;7.68;;;11.80;87.40;;;;;;4872280;29;20045;-80
2021/11/19 15:56:39;;;;;;;19.23;8.52;;;11.80;87.40;;;;;;4871816;29;20073;-80
2021/11/19 15:59:24;;;;;;;;;;;11.80;87.60;;;;;;4869993;29;20045;-80
2021/11/19 16:02:02;;;;;;;13.98;8.18;;;11.80;87.80;;;;;;4852251;29;19935;-80
2021/11/19 16:04:37;;;;;;;16.17;7.75;;;11.70;87.90;;;;;;4870091;29;20017;-80
2021/11/19 16:07:21;;;;;;;13.85;8.25;;;11.70;88.10;;;;;;4856308;29;20033;-80
2021/11/19 16:10:01;;;;;;;11.80;7.55;;;11.70;88.10;;;;;;4869752;29;20321;-80
2021/11/19 16:12:30;;;;;;;13.07;8.25;;;11.80;88.00;;;;;;4852269;29;20022;-80
2021/11/19 16:14:56;;;;;;;11.90;7.47;;;11.80;88.10;;;;;;4856352;29;20032;-80
2021/11/19 16:17:26;;;;;;;17.77;7.97;;;11.70;88.10;;;;;;4820540;29;20034;-80
2021/11/19 16:19:51;;;;;;;13.73;8.27;;;11.70;88.10;;;;;;4867100;29;20034;-80
2021/11/19 16:22:17;;;;;;;12.80;7.88;;;11.70;88.10;;;;;;4855133;29;20041;-80
2021/11/19 16:24:43;;;;;;;17.50;8.00;;;11.70;88.10;;;;;;4835986;29;20123;-80
2021/11/19 16:27:30;;;;;;;14.48;8.48;;;11.70;88.20;;;;;;4851614;29;20282;-80
2021/11/19 16:30:00;;;;;;;16.63;8.45;;;11.70;88.40;;;;;;4855003;29;20078;-81
2021/11/19 16:32:28;;;;;;;12.57;8.10;;;11.70;88.50;;;;;;4870601;29;20215;-80
2021/11/19 16:34:54;;;;;;;13.23;8.27;;;11.70;88.70;;;;;;4871503;29;20026;-80
2021/11/19 16:37:20;;;;;;;13.60;8.15;;;11.70;88.80;;;;;;4857870;29;20033;-80
2021/11/19 16:39:47;;;;;;;11.77;7.73;;;11.70;88.80;;;;;;4868475;29;20098;-80
2021/11/19 16:42:14;;;;;;;12.90;7.80;;;11.70;89.00;;;;;;4863787;29;20025;-80
2021/11/19 16:44:42;;;;;;;13.88;8.52;;;11.60;89.10;;;;;;4852075;29;20056;-80
2021/11/19 16:47:09;;;;;;;15.13;8.75;;;11.70;89.30;;;;;;4868727;29;20053;-80
2021/11/19 16:49:38;;;;;;;;;;;11.70;89.10;;;;;;4868413;29;20060;-80
2021/11/19 16:52:09;;;;;;;11.10;7.78;;;11.60;89.50;;;;;;4853924;29;19993;-80
2021/11/19 16:54:36;;;;;;;14.23;8.98;;;11.60;89.70;;;;;;4845053;29;20141;-81
2021/11/19 16:57:08;;;;;;;11.65;7.90;;;11.60;89.70;;;;;;4870264;29;20093;-81
2021/11/19 16:59:35;;;;;;;13.82;8.93;;;11.60;89.70;;;;;;4871505;29;20034;-82
2021/11/19 17:02:01;;;;;;;14.05;8.13;;;11.60;89.70;;;;;;4851982;29;20104;-81
2021/11/19 17:04:27;;;;;;;12.87;7.60;;;11.60;90.00;;;;;;4836469;29;20036;-81
2021/11/19 17:06:54;;;;;;;15.48;9.10;;;11.60;90.10;;;;;;4840977;29;20038;-81